createdAt,value
2018-03-08T00:00:42.958Z,1.93
2018-03-08T00:01:42.925Z,2.00
2018-03-08T00:02:42.886Z,1.93
2018-03-08T00:03:43.234Z,2.04
2018-03-08T00:04:42.934Z,2.00
2018-03-08T00:06:42.786Z,2.01
2018-03-08T00:07:42.764Z,1.99
2018-03-08T00:08:42.750Z,1.87
2018-03-08T00:10:43.058Z,1.92
2018-03-08T00:11:42.687Z,1.93
2018-03-08T00:12:42.666Z,2.01
2018-03-08T00:13:42.638Z,2.03
2018-03-08T00:14:42.615Z,2.04
2018-03-08T00:15:42.637Z,2.04
2018-03-08T00:18:43.010Z,1.99
2018-03-08T00:19:42.495Z,2.00
2018-03-08T00:20:42.465Z,2.01
2018-03-08T00:21:42.498Z,2.04
2018-03-08T00:23:42.405Z,2.00
2018-03-08T00:24:42.417Z,2.03
2018-03-08T00:25:42.644Z,2.03
2018-03-08T00:26:42.337Z,2.04
2018-03-08T00:27:42.352Z,2.01
2018-03-08T00:29:42.372Z,2.03
2018-03-08T00:30:42.315Z,2.00
2018-03-08T00:31:42.225Z,1.99
2018-03-08T00:32:42.545Z,2.01
2018-03-08T00:33:42.177Z,2.03
2018-03-08T00:34:42.150Z,2.04
2018-03-08T00:35:42.222Z,2.01
2018-03-08T00:36:42.086Z,2.07
2018-03-08T00:37:42.068Z,2.15
2018-03-08T00:38:42.052Z,2.04
2018-03-08T00:39:42.331Z,2.06
2018-03-08T00:40:42.166Z,2.04
2018-03-08T00:41:42.020Z,2.01
2018-03-08T00:43:41.966Z,2.10
2018-03-08T00:44:42.043Z,2.10
2018-03-08T00:45:41.889Z,2.12
2018-03-08T00:46:42.297Z,2.07
2018-03-08T00:47:41.841Z,2.12
2018-03-08T00:48:42.649Z,2.14
2018-03-08T00:49:41.803Z,2.15
2018-03-08T00:50:41.770Z,2.18
2018-03-08T00:53:42.076Z,2.15
2018-03-08T00:54:41.695Z,2.14
2018-03-08T00:55:41.653Z,2.14
2018-03-08T00:56:41.627Z,2.19
2018-03-08T00:57:41.693Z,2.17
2018-03-08T00:58:41.577Z,2.12
2018-03-08T01:00:42.010Z,2.15
2018-03-08T01:01:41.519Z,2.07
2018-03-08T01:03:41.476Z,2.15
2018-03-08T01:04:41.561Z,2.12
2018-03-08T01:05:41.436Z,2.14
2018-03-08T01:06:41.738Z,2.03
2018-03-08T01:07:41.397Z,2.00
2018-03-08T01:10:41.660Z,1.99
2018-03-08T01:11:41.439Z,2.01
2018-03-08T01:12:41.675Z,1.89
2018-03-08T01:13:41.333Z,2.06
2018-03-08T01:14:41.211Z,1.89
2018-03-08T01:15:41.179Z,1.87
2018-03-08T01:16:41.163Z,1.92
2018-03-08T01:17:41.141Z,1.89
2018-03-08T01:21:41.402Z,1.99
2018-03-08T01:22:41.030Z,1.92
2018-03-08T01:23:41.057Z,1.91
2018-03-08T01:24:41.035Z,1.85
2018-03-08T01:25:40.966Z,1.92
2018-03-08T01:28:41.183Z,1.91
2018-03-08T01:30:40.957Z,1.85
2018-03-08T01:32:40.804Z,1.87
2018-03-08T01:33:40.776Z,1.92
2018-03-08T01:34:41.056Z,1.89
2018-03-08T01:35:40.781Z,1.87
2018-03-08T01:36:40.897Z,1.92
2018-03-08T01:37:40.669Z,1.89
2018-03-08T01:38:40.807Z,1.87
2018-03-08T01:40:40.983Z,1.91
2018-03-08T01:41:40.676Z,1.80
2018-03-08T01:42:40.548Z,1.87
2018-03-08T01:43:40.525Z,1.80
2018-03-08T01:45:40.599Z,1.82
2018-03-08T01:46:40.697Z,1.91
2018-03-08T01:47:40.849Z,1.81
2018-03-08T01:48:40.408Z,1.93
2018-03-08T01:49:40.403Z,1.93
2018-03-08T01:50:40.368Z,1.91
2018-03-08T01:51:40.398Z,1.85
2018-03-08T01:52:40.339Z,1.97
2018-03-08T01:53:40.298Z,1.93
2018-03-08T01:54:40.580Z,1.93
2018-03-08T01:55:40.257Z,1.92
2018-03-08T01:56:40.283Z,1.92
2018-03-08T01:57:40.217Z,1.85
2018-03-08T01:58:40.195Z,1.85
2018-03-08T01:59:40.221Z,2.04
2018-03-08T02:00:40.139Z,1.92
2018-03-08T02:01:40.423Z,1.92
2018-03-08T02:02:40.140Z,2.00
2018-03-08T02:03:40.056Z,1.99
2018-03-08T02:04:40.036Z,2.01
2018-03-08T02:05:40.010Z,1.97
2018-03-08T02:06:40.147Z,1.93
2018-03-08T02:07:39.971Z,2.04
2018-03-08T02:08:40.297Z,2.03
2018-03-08T02:09:39.935Z,2.00
2018-03-08T02:10:39.892Z,2.07
2018-03-08T02:11:39.880Z,2.07
2018-03-08T02:12:39.983Z,2.10
2018-03-08T02:13:39.822Z,2.07
2018-03-08T02:14:39.808Z,2.06
2018-03-08T02:15:40.100Z,2.10
2018-03-08T02:16:39.773Z,2.06
2018-03-08T02:17:39.777Z,2.03
2018-03-08T02:20:39.674Z,2.03
2018-03-08T02:21:39.653Z,2.07
2018-03-08T02:22:39.929Z,2.15
2018-03-08T02:23:39.655Z,2.12
2018-03-08T02:24:39.577Z,2.12
2018-03-08T02:25:39.582Z,2.21
2018-03-08T02:26:39.534Z,2.18
2018-03-08T02:27:39.506Z,2.28
2018-03-08T02:28:39.843Z,2.28
2018-03-08T02:29:39.478Z,2.30
2018-03-08T02:30:39.449Z,2.28
2018-03-08T02:31:39.455Z,2.32
2018-03-08T02:32:39.397Z,2.36
2018-03-08T02:33:39.571Z,2.42
2018-03-08T02:34:39.655Z,2.42
2018-03-08T02:35:39.318Z,2.42
2018-03-08T02:36:39.327Z,2.47
2018-03-08T02:37:39.271Z,2.43
2018-03-08T02:38:39.302Z,2.51
2018-03-08T02:39:39.231Z,2.55
2018-03-08T02:40:39.496Z,2.42
2018-03-08T02:41:39.169Z,2.51
2018-03-08T02:42:39.143Z,2.51
2018-03-08T02:43:39.126Z,2.57
2018-03-08T02:44:39.149Z,2.57
2018-03-08T02:45:39.229Z,2.47
2018-03-08T02:46:39.362Z,2.61
2018-03-08T02:47:39.036Z,2.53
2018-03-08T02:48:39.005Z,2.58
2018-03-08T02:49:39.000Z,2.53
2018-03-08T02:50:39.914Z,2.58
2018-03-08T02:53:39.201Z,2.63
2018-03-08T02:54:38.928Z,2.60
2018-03-08T02:55:38.839Z,2.55
2018-03-08T02:56:38.869Z,2.55
2018-03-08T02:57:38.809Z,2.54
2018-03-08T02:58:38.789Z,2.55
2018-03-08T02:59:39.058Z,2.60
2018-03-08T03:00:38.792Z,2.71
2018-03-08T03:01:38.712Z,2.75
2018-03-08T03:02:38.687Z,2.72
2018-03-08T03:03:38.722Z,2.78
2018-03-08T03:04:38.699Z,2.75
2018-03-08T03:05:38.923Z,2.78
2018-03-08T03:06:38.581Z,2.78
2018-03-08T03:07:38.578Z,2.75
2018-03-08T03:08:38.544Z,2.78
2018-03-08T03:09:38.526Z,2.75
2018-03-08T03:10:38.543Z,2.81
2018-03-08T03:11:38.483Z,2.72
2018-03-08T03:12:38.747Z,2.84
2018-03-08T03:13:38.436Z,2.79
2018-03-08T03:14:38.412Z,2.86
2018-03-08T03:15:38.378Z,2.81
2018-03-08T03:16:38.396Z,2.89
2018-03-08T03:17:38.328Z,2.81
2018-03-08T03:18:38.306Z,2.90
2018-03-08T03:20:38.554Z,2.93
2018-03-08T03:21:38.452Z,2.90
2018-03-08T03:22:38.273Z,2.93
2018-03-08T03:23:38.192Z,2.93
2018-03-08T03:24:38.165Z,3.04
2018-03-08T03:25:38.135Z,2.97
2018-03-08T03:26:38.125Z,3.04
2018-03-08T03:27:38.457Z,3.02
2018-03-08T03:28:38.083Z,3.00
2018-03-08T03:30:38.030Z,3.07
2018-03-08T03:31:38.005Z,3.05
2018-03-08T03:32:38.028Z,3.08
2018-03-08T03:33:37.957Z,3.14
2018-03-08T03:34:38.231Z,3.05
2018-03-08T03:35:37.917Z,3.17
2018-03-08T03:36:37.887Z,3.12
2018-03-08T03:38:38.043Z,3.17
2018-03-08T03:40:38.110Z,3.11
2018-03-08T03:41:37.977Z,3.12
2018-03-08T03:42:38.025Z,3.08
2018-03-08T03:43:37.781Z,3.05
2018-03-08T03:44:37.753Z,3.12
2018-03-08T03:45:37.683Z,3.08
2018-03-08T03:46:37.695Z,3.08
2018-03-08T03:47:37.927Z,3.12
2018-03-08T03:49:37.582Z,3.26
2018-03-08T03:50:37.559Z,3.17
2018-03-08T03:51:37.541Z,3.20
2018-03-08T03:52:37.571Z,3.22
2018-03-08T03:53:37.799Z,3.17
2018-03-08T03:54:37.537Z,3.29
2018-03-08T03:55:37.463Z,3.29
2018-03-08T03:57:37.406Z,3.45
2018-03-08T03:58:37.437Z,3.41
2018-03-08T03:59:37.667Z,3.37
2018-03-08T04:00:37.344Z,3.33
2018-03-08T04:01:37.325Z,3.36
2018-03-08T04:02:37.295Z,3.37
2018-03-08T04:03:37.367Z,3.46
2018-03-08T04:04:37.343Z,3.35
2018-03-08T04:05:37.525Z,3.41
2018-03-08T04:06:37.202Z,3.46
2018-03-08T04:07:37.283Z,3.44
2018-03-08T04:08:37.151Z,3.52
2018-03-08T04:09:37.123Z,3.45
2018-03-08T04:10:37.153Z,3.48
2018-03-08T04:11:37.383Z,3.54
2018-03-08T04:12:37.059Z,3.48
2018-03-08T04:13:37.036Z,3.54
2018-03-08T04:14:37.011Z,3.51
2018-03-08T04:15:36.996Z,3.56
2018-03-08T04:16:37.072Z,3.51
2018-03-08T04:17:37.242Z,3.56
2018-03-08T04:18:36.919Z,3.60
2018-03-08T04:19:36.997Z,3.59
2018-03-08T04:23:37.159Z,3.64
2018-03-08T04:24:36.788Z,3.64
2018-03-08T04:25:36.759Z,3.67
2018-03-08T04:26:36.784Z,3.66
2018-03-08T04:27:36.714Z,3.70
2018-03-08T04:28:36.710Z,3.72
2018-03-08T04:30:36.945Z,3.70
2018-03-08T04:31:36.748Z,3.82
2018-03-08T04:32:36.613Z,3.81
2018-03-08T04:33:36.580Z,3.78
2018-03-08T04:34:36.551Z,3.84
2018-03-08T04:35:36.558Z,3.85
2018-03-08T04:38:36.807Z,3.91
2018-03-08T04:39:36.438Z,3.87
2018-03-08T04:40:36.406Z,3.88
2018-03-08T04:41:36.388Z,3.91
2018-03-08T04:42:36.372Z,3.91
2018-03-08T04:43:36.548Z,4.00
2018-03-08T04:44:36.323Z,4.00
2018-03-08T04:45:36.903Z,3.87
2018-03-08T04:46:36.271Z,4.00
2018-03-08T04:47:36.245Z,3.99
2018-03-08T04:48:38.073Z,3.98
2018-03-08T04:49:36.255Z,4.03
2018-03-08T04:50:36.181Z,4.08
2018-03-08T04:51:36.154Z,4.03
2018-03-08T04:52:36.443Z,4.17
2018-03-08T04:53:36.118Z,4.13
2018-03-08T04:54:36.114Z,4.10
2018-03-08T04:55:36.129Z,4.05
2018-03-08T04:56:36.059Z,4.02
2018-03-08T04:58:36.010Z,4.09
2018-03-08T04:59:36.382Z,4.10
2018-03-08T05:00:36.316Z,4.18
2018-03-08T05:01:35.944Z,4.06
2018-03-08T05:02:35.915Z,4.12
2018-03-08T05:03:35.892Z,4.08
2018-03-08T05:04:35.873Z,4.09
2018-03-08T05:05:35.842Z,4.10
2018-03-08T05:06:36.182Z,4.12
2018-03-08T05:07:35.808Z,4.09
2018-03-08T05:08:35.789Z,4.17
2018-03-08T05:09:35.754Z,4.18
2018-03-08T05:10:35.721Z,4.18
2018-03-08T05:11:35.703Z,4.18
2018-03-08T05:12:35.731Z,4.23
2018-03-08T05:13:35.963Z,4.31
2018-03-08T05:15:35.612Z,4.27
2018-03-08T05:16:35.593Z,4.42
2018-03-08T05:18:35.586Z,4.30
2018-03-08T05:20:36.267Z,4.41
2018-03-08T05:21:35.483Z,4.43
2018-03-08T05:22:35.465Z,4.42
2018-03-08T05:23:35.424Z,4.43
2018-03-08T05:24:35.408Z,4.56
2018-03-08T05:25:35.390Z,4.57
2018-03-08T05:26:35.716Z,4.49
2018-03-08T05:27:35.341Z,4.49
2018-03-08T05:28:35.333Z,4.60
2018-03-08T05:29:35.300Z,4.63
2018-03-08T05:30:35.278Z,4.63
2018-03-08T05:31:35.265Z,4.67
2018-03-08T05:32:35.579Z,4.74
2018-03-08T05:33:35.211Z,4.69
2018-03-08T05:34:35.181Z,4.67
2018-03-08T05:35:35.153Z,4.71
2018-03-08T05:36:35.127Z,4.74
2018-03-08T05:37:35.165Z,4.60
2018-03-08T05:38:35.384Z,4.74
2018-03-08T05:39:35.118Z,4.71
2018-03-08T05:40:35.046Z,4.66
2018-03-08T05:41:35.024Z,4.74
2018-03-08T05:42:35.009Z,4.66
2018-03-08T05:43:34.980Z,4.72
2018-03-08T05:44:35.309Z,4.67
2018-03-08T05:45:34.928Z,4.59
2018-03-08T05:46:34.910Z,4.72
2018-03-08T05:47:35.130Z,4.72
2018-03-08T05:48:35.225Z,4.71
2018-03-08T05:49:34.839Z,4.69
2018-03-08T05:50:35.169Z,4.72
2018-03-08T05:51:34.805Z,4.75
2018-03-08T05:52:34.768Z,4.74
2018-03-08T05:53:34.828Z,4.82
2018-03-08T05:54:34.739Z,4.74
2018-03-08T05:55:34.719Z,4.71
2018-03-08T05:56:34.886Z,4.72
2018-03-08T05:57:36.687Z,4.72
2018-03-08T05:58:35.015Z,4.72
2018-03-08T05:59:34.651Z,4.79
2018-03-08T06:00:35.341Z,4.72
2018-03-08T06:01:35.071Z,4.77
2018-03-08T06:03:34.846Z,4.78
2018-03-08T06:04:34.737Z,4.74
2018-03-08T06:05:34.550Z,4.75
2018-03-08T06:06:34.473Z,4.72
2018-03-08T06:07:34.459Z,4.75
2018-03-08T06:08:34.421Z,4.78
2018-03-08T06:09:34.452Z,4.75
2018-03-08T06:10:34.682Z,4.71
2018-03-08T06:11:34.340Z,4.75
2018-03-08T06:12:34.320Z,4.69
2018-03-08T06:13:34.325Z,4.71
2018-03-08T06:14:34.333Z,4.74
2018-03-08T06:15:34.261Z,4.71
2018-03-08T06:16:34.247Z,4.72
2018-03-08T06:17:34.526Z,4.72
2018-03-08T06:18:34.183Z,4.69
2018-03-08T06:19:34.293Z,4.79
2018-03-08T06:20:34.172Z,4.75
2018-03-08T06:21:34.126Z,4.69
2018-03-08T06:22:34.111Z,4.71
2018-03-08T06:23:34.102Z,4.72
2018-03-08T06:24:34.373Z,4.77
2018-03-08T06:25:34.091Z,4.71
2018-03-08T06:26:34.021Z,4.74
2018-03-08T06:27:34.006Z,4.82
2018-03-08T06:28:33.969Z,4.79
2018-03-08T06:29:33.962Z,4.74
2018-03-08T06:30:33.976Z,4.77
2018-03-08T06:31:34.217Z,4.69
2018-03-08T06:32:33.878Z,4.69
2018-03-08T06:33:33.858Z,4.69
2018-03-08T06:34:33.834Z,4.61
2018-03-08T06:35:34.000Z,4.67
2018-03-08T06:36:34.163Z,4.71
2018-03-08T06:37:33.761Z,4.75
2018-03-08T06:38:34.088Z,4.72
2018-03-08T06:39:33.724Z,4.69
2018-03-08T06:40:33.767Z,4.74
2018-03-08T06:41:33.685Z,4.75
2018-03-08T06:42:33.650Z,4.75
2018-03-08T06:43:33.623Z,4.71
2018-03-08T06:44:33.601Z,4.71
2018-03-08T06:45:33.579Z,4.66
2018-03-08T06:46:33.672Z,4.69
2018-03-08T06:47:33.540Z,4.61
2018-03-08T06:48:33.517Z,4.67
2018-03-08T06:49:33.502Z,4.69
2018-03-08T06:50:33.763Z,4.64
2018-03-08T06:51:33.443Z,4.60
2018-03-08T06:52:33.467Z,4.57
2018-03-08T06:53:33.406Z,4.59
2018-03-08T06:54:33.373Z,4.56
2018-03-08T06:55:33.369Z,4.49
2018-03-08T06:56:33.638Z,4.54
2018-03-08T06:57:33.364Z,4.49
2018-03-08T06:58:33.285Z,4.48
2018-03-08T06:59:33.270Z,4.57
2018-03-08T07:00:33.252Z,4.59
2018-03-08T07:01:33.237Z,4.45
2018-03-08T07:02:33.569Z,4.46
2018-03-08T07:03:33.191Z,4.46
2018-03-08T07:04:33.163Z,4.54
2018-03-08T07:05:33.136Z,4.43
2018-03-08T07:06:33.117Z,4.49
2018-03-08T07:07:33.094Z,4.49
2018-03-08T07:08:33.425Z,4.42
2018-03-08T07:09:33.049Z,4.45
2018-03-08T07:10:33.025Z,4.49
2018-03-08T07:11:33.112Z,4.42
2018-03-08T07:12:33.028Z,4.31
2018-03-08T07:13:33.500Z,4.41
2018-03-08T07:14:33.582Z,4.42
2018-03-08T07:15:33.126Z,4.41
2018-03-08T07:16:33.036Z,4.38
2018-03-08T07:17:33.012Z,4.34
2018-03-08T07:18:32.896Z,4.28
2018-03-08T07:19:32.873Z,4.30
2018-03-08T07:20:32.798Z,4.26
2018-03-08T07:22:32.746Z,4.31
2018-03-08T07:23:32.786Z,4.27
2018-03-08T07:24:32.882Z,4.24
2018-03-08T07:25:32.678Z,4.27
2018-03-08T07:26:32.708Z,4.20
2018-03-08T07:27:32.767Z,4.26
2018-03-08T07:28:32.911Z,4.31
2018-03-08T07:29:32.998Z,4.34
2018-03-08T07:30:32.857Z,4.34
2018-03-08T07:31:32.647Z,4.31
2018-03-08T07:32:32.567Z,4.31
2018-03-08T07:33:32.498Z,4.30
2018-03-08T07:34:32.490Z,4.30
2018-03-08T07:35:32.759Z,4.39
2018-03-08T07:36:32.422Z,4.34
2018-03-08T07:37:32.464Z,4.39
2018-03-08T07:38:32.399Z,4.39
2018-03-08T07:39:32.369Z,4.46
2018-03-08T07:40:32.346Z,4.45
2018-03-08T07:41:32.385Z,4.45
2018-03-08T07:42:32.605Z,4.46
2018-03-08T07:43:32.283Z,4.45
2018-03-08T07:44:32.260Z,4.57
2018-03-08T07:45:32.222Z,4.60
2018-03-08T07:46:32.197Z,4.51
2018-03-08T07:47:32.237Z,4.57
2018-03-08T07:48:32.169Z,4.56
2018-03-08T07:49:32.384Z,4.46
2018-03-08T07:50:32.125Z,4.48
2018-03-08T07:51:32.103Z,4.41
2018-03-08T07:52:32.145Z,4.46
2018-03-08T07:53:32.059Z,4.43
2018-03-08T07:54:32.084Z,4.43
2018-03-08T07:55:32.006Z,4.39
2018-03-08T07:56:32.286Z,4.41
2018-03-08T07:57:31.966Z,4.43
2018-03-08T07:58:32.019Z,4.41
2018-03-08T07:59:31.920Z,4.41
2018-03-08T08:00:31.954Z,4.41
2018-03-08T08:01:31.876Z,4.43
2018-03-08T08:02:31.895Z,4.42
2018-03-08T08:03:32.132Z,4.45
2018-03-08T08:04:31.815Z,4.46
2018-03-08T08:05:31.781Z,4.43
2018-03-08T08:06:31.813Z,4.46
2018-03-08T08:07:31.762Z,4.53
2018-03-08T08:08:31.717Z,4.53
2018-03-08T08:09:32.002Z,4.53
2018-03-08T08:10:31.716Z,4.51
2018-03-08T08:11:31.651Z,4.59
2018-03-08T08:12:31.669Z,4.61
2018-03-08T08:13:31.608Z,4.56
2018-03-08T08:14:31.583Z,4.60
2018-03-08T08:15:31.810Z,4.66
2018-03-08T08:16:31.540Z,4.60
2018-03-08T08:17:31.580Z,4.66
2018-03-08T08:18:31.508Z,4.71
2018-03-08T08:19:31.492Z,4.63
2018-03-08T08:20:31.464Z,4.66
2018-03-08T08:21:31.747Z,4.71
2018-03-08T08:22:31.473Z,4.71
2018-03-08T08:23:31.402Z,4.66
2018-03-08T08:24:31.382Z,4.74
2018-03-08T08:25:31.380Z,4.64
2018-03-08T08:26:31.327Z,4.63
2018-03-08T08:27:31.653Z,4.63
2018-03-08T08:28:31.284Z,4.60
2018-03-08T08:29:31.252Z,4.64
2018-03-08T08:30:31.230Z,4.71
2018-03-08T08:31:31.224Z,4.63
2018-03-08T08:32:33.853Z,4.77
2018-03-08T08:33:31.474Z,4.63
2018-03-08T08:34:31.163Z,4.60
2018-03-08T08:35:31.137Z,4.59
2018-03-08T08:36:31.120Z,4.57
2018-03-08T08:37:31.099Z,4.53
2018-03-08T08:38:31.173Z,4.56
2018-03-08T08:39:31.349Z,4.56
2018-03-08T08:40:31.150Z,4.60
2018-03-08T08:41:30.998Z,4.59
2018-03-08T08:42:30.970Z,4.54
2018-03-08T08:43:30.951Z,4.57
2018-03-08T08:44:30.931Z,4.61
2018-03-08T08:45:30.905Z,4.59
2018-03-08T08:46:31.243Z,4.71
2018-03-08T08:47:30.861Z,4.71
2018-03-08T08:48:30.854Z,4.67
2018-03-08T08:49:30.840Z,4.71
2018-03-08T08:50:30.793Z,4.77
2018-03-08T08:51:32.020Z,4.71
2018-03-08T08:52:31.119Z,4.78
2018-03-08T08:53:30.725Z,4.82
2018-03-08T08:54:30.731Z,4.82
2018-03-08T08:55:30.685Z,4.94
2018-03-08T08:56:30.689Z,4.86
2018-03-08T08:57:30.698Z,4.86
2018-03-08T08:58:30.629Z,4.91
2018-03-08T08:59:30.896Z,4.98
2018-03-08T09:00:30.583Z,5.12
2018-03-08T09:01:30.614Z,5.15
2018-03-08T09:02:30.557Z,5.24
2018-03-08T09:03:30.516Z,5.29
2018-03-08T09:04:30.505Z,5.22
2018-03-08T09:05:30.476Z,5.29
2018-03-08T09:06:30.770Z,5.19
2018-03-08T09:07:30.488Z,5.29
2018-03-08T09:08:30.458Z,5.22
2018-03-08T09:09:30.388Z,5.19
2018-03-08T09:10:30.365Z,5.24
2018-03-08T09:11:30.344Z,5.30
2018-03-08T09:12:30.625Z,5.29
2018-03-08T09:13:30.352Z,5.30
2018-03-08T09:14:30.285Z,5.37
2018-03-08T09:15:30.268Z,5.47
2018-03-08T09:16:30.238Z,5.44
2018-03-08T09:17:30.280Z,5.40
2018-03-08T09:18:30.216Z,5.44
2018-03-08T09:19:30.538Z,5.65
2018-03-08T09:20:30.170Z,5.69
2018-03-08T09:21:30.141Z,5.62
2018-03-08T09:22:30.146Z,5.72
2018-03-08T09:23:30.115Z,5.70
2018-03-08T09:24:30.083Z,5.72
2018-03-08T09:25:30.113Z,5.65
2018-03-08T09:26:30.173Z,5.79
2018-03-08T09:27:30.409Z,5.95
2018-03-08T09:28:30.445Z,6.18
2018-03-08T09:29:30.059Z,6.31
2018-03-08T09:30:29.968Z,7.03
2018-03-08T09:31:29.994Z,6.89
2018-03-08T09:32:29.972Z,6.65
2018-03-08T09:33:29.963Z,6.49
2018-03-08T09:34:29.881Z,6.46
2018-03-08T09:35:29.859Z,6.67
2018-03-08T09:36:29.833Z,6.64
2018-03-08T09:37:29.816Z,6.47
2018-03-08T09:38:30.140Z,6.27
2018-03-08T09:39:29.773Z,6.11
2018-03-08T09:40:29.750Z,6.15
2018-03-08T09:41:29.740Z,6.35
2018-03-08T09:42:29.725Z,6.45
2018-03-08T09:43:29.723Z,6.34
2018-03-08T09:44:29.723Z,6.31
2018-03-08T09:45:29.662Z,6.19
2018-03-08T09:46:29.646Z,6.27
2018-03-08T09:47:29.674Z,6.18
2018-03-08T09:48:29.609Z,6.24
2018-03-08T09:49:29.591Z,6.21
2018-03-08T09:50:29.878Z,6.57
2018-03-08T09:51:29.566Z,6.49
2018-03-08T09:52:29.636Z,6.53
2018-03-08T09:53:29.574Z,6.42
2018-03-08T09:54:29.488Z,6.45
2018-03-08T09:55:29.477Z,6.63
2018-03-08T09:56:29.458Z,6.82
2018-03-08T09:57:29.443Z,6.85
2018-03-08T09:58:29.469Z,7.00
2018-03-08T09:59:29.389Z,7.06
2018-03-08T10:00:29.385Z,6.70
2018-03-08T10:01:29.364Z,6.68
2018-03-08T10:03:29.625Z,7.13
2018-03-08T10:04:29.369Z,6.81
2018-03-08T10:05:29.281Z,6.88
2018-03-08T10:06:29.320Z,7.18
2018-03-08T10:07:29.253Z,7.34
2018-03-08T10:08:29.978Z,7.03
2018-03-08T10:09:29.536Z,6.89
2018-03-08T10:10:29.188Z,7.03
2018-03-08T10:11:29.189Z,7.03
2018-03-08T10:12:29.153Z,7.07
2018-03-08T10:13:29.138Z,7.16
2018-03-08T10:14:29.165Z,7.16
2018-03-08T10:15:29.104Z,7.01
2018-03-08T10:16:29.403Z,7.01
2018-03-08T10:17:29.059Z,7.06
2018-03-08T10:18:29.156Z,6.81
2018-03-08T10:19:29.055Z,6.85
2018-03-08T10:20:29.118Z,6.74
2018-03-08T10:21:44.453Z,6.70
2018-03-08T10:22:28.970Z,6.83
2018-03-08T10:23:29.253Z,6.70
2018-03-08T10:24:29.304Z,6.74
2018-03-08T10:25:28.928Z,6.85
2018-03-08T10:26:28.915Z,6.71
2018-03-08T10:27:28.896Z,6.71
2018-03-08T10:28:28.924Z,6.82
2018-03-08T10:29:28.872Z,7.04
2018-03-08T10:30:29.198Z,7.06
2018-03-08T10:31:28.952Z,7.15
2018-03-08T10:32:28.798Z,7.04
2018-03-08T10:33:28.825Z,6.93
2018-03-08T10:34:28.759Z,7.01
2018-03-08T10:35:28.796Z,7.34
2018-03-08T10:36:28.730Z,7.24
2018-03-08T10:37:28.950Z,7.28
2018-03-08T10:38:28.688Z,7.40
2018-03-08T10:39:28.713Z,7.55
2018-03-08T10:43:28.622Z,8.04
2018-03-08T10:44:28.874Z,8.06
2018-03-08T10:45:28.563Z,7.77
2018-03-08T10:46:28.548Z,7.66
2018-03-08T10:47:28.530Z,7.50
2018-03-08T10:48:28.572Z,7.26
2018-03-08T10:49:28.485Z,6.97
2018-03-08T10:50:28.677Z,6.91
2018-03-08T10:51:28.762Z,8.20
2018-03-08T10:52:28.441Z,9.48
2018-03-08T10:53:28.427Z,8.78
2018-03-08T10:54:28.502Z,9.55
2018-03-08T10:55:28.521Z,9.69
2018-03-08T10:56:28.366Z,8.83
2018-03-08T10:57:28.651Z,8.39
2018-03-08T10:58:28.320Z,8.13
2018-03-08T10:59:28.370Z,8.01
2018-03-08T11:00:28.393Z,8.89
2018-03-08T11:01:28.290Z,9.80
2018-03-08T11:02:28.263Z,10.64
2018-03-08T11:03:28.491Z,10.55
2018-03-08T11:04:28.228Z,11.27
2018-03-08T11:05:28.314Z,11.43
2018-03-08T11:06:28.245Z,11.04
2018-03-08T11:07:28.183Z,11.00
2018-03-08T11:08:28.197Z,11.54
2018-03-08T11:09:28.458Z,10.61
2018-03-08T11:10:28.137Z,11.38
2018-03-08T11:11:28.256Z,11.43
2018-03-08T11:12:28.349Z,11.20
2018-03-08T11:13:28.663Z,11.30
2018-03-08T11:14:28.199Z,10.91
2018-03-08T11:15:28.366Z,11.45
2018-03-08T11:16:28.481Z,12.13
2018-03-08T11:17:28.053Z,11.93
2018-03-08T11:18:28.094Z,12.23
2018-03-08T11:19:28.192Z,12.25
2018-03-08T11:20:28.089Z,12.46
2018-03-08T11:21:28.044Z,12.03
2018-03-08T11:22:28.289Z,12.23
2018-03-08T11:23:27.981Z,12.69
2018-03-08T11:24:27.966Z,12.83
2018-03-08T11:25:27.945Z,12.68
2018-03-08T11:26:27.987Z,13.27
2018-03-08T11:27:27.977Z,13.21
2018-03-08T11:28:28.219Z,13.58
2018-03-08T11:29:27.900Z,13.16
2018-03-08T11:30:27.887Z,12.71
2018-03-08T11:31:27.930Z,12.32
2018-03-08T11:32:27.916Z,11.56
2018-03-08T11:33:27.868Z,11.99
2018-03-08T11:34:28.096Z,11.51
2018-03-08T11:35:27.851Z,12.13
2018-03-08T11:36:27.837Z,11.62
2018-03-08T11:37:27.872Z,11.56
2018-03-08T11:38:27.807Z,10.43
2018-03-08T11:39:27.816Z,9.69
2018-03-08T11:40:27.840Z,9.72
2018-03-08T11:41:28.147Z,9.66
2018-03-08T11:42:27.817Z,9.77
2018-03-08T11:43:27.880Z,10.75
2018-03-08T11:44:27.740Z,11.03
2018-03-08T11:45:27.737Z,11.71
2018-03-08T11:46:29.470Z,12.32
2018-03-08T11:47:27.716Z,12.69
2018-03-08T11:48:28.007Z,13.32
2018-03-08T11:49:27.740Z,13.58
2018-03-08T11:50:27.684Z,13.57
2018-03-08T11:51:27.682Z,13.13
2018-03-08T11:52:27.668Z,12.79
2018-03-08T11:53:27.645Z,13.11
2018-03-08T11:54:27.928Z,13.38
2018-03-08T11:55:28.228Z,13.06
2018-03-08T11:56:27.625Z,13.47
2018-03-08T11:58:27.795Z,13.26
2018-03-08T11:59:27.582Z,12.72
2018-03-08T12:00:27.578Z,12.30
2018-03-08T12:01:28.130Z,12.18
2018-03-08T12:02:27.551Z,12.96
2018-03-08T12:03:27.541Z,13.20
2018-03-08T12:04:27.530Z,13.23
2018-03-08T12:05:27.524Z,13.53
2018-03-08T12:06:27.511Z,12.73
2018-03-08T12:07:27.844Z,12.50
2018-03-08T12:08:27.700Z,13.63
2018-03-08T12:09:27.713Z,13.29
2018-03-08T12:10:27.465Z,13.54
2018-03-08T12:11:27.825Z,13.61
2018-03-08T12:12:27.452Z,12.99
2018-03-08T12:13:27.444Z,13.14
2018-03-08T12:14:28.215Z,11.62
2018-03-08T12:15:27.426Z,11.67
2018-03-08T12:16:27.416Z,12.88
2018-03-08T12:18:27.780Z,13.21
2018-03-08T12:20:27.696Z,13.82
2018-03-08T12:21:27.344Z,13.72
2018-03-08T12:22:27.333Z,13.49
2018-03-08T12:23:27.330Z,13.51
2018-03-08T12:24:27.363Z,13.76
2018-03-08T12:25:27.363Z,13.94
2018-03-08T12:26:27.301Z,14.05
2018-03-08T12:27:27.591Z,13.20
2018-03-08T12:28:27.281Z,11.95
2018-03-08T12:29:27.272Z,11.37
2018-03-08T12:30:27.316Z,11.04
2018-03-08T12:31:27.244Z,12.04
2018-03-08T12:32:27.482Z,11.22
2018-03-08T12:33:27.544Z,12.63
2018-03-08T12:34:27.239Z,13.47
2018-03-08T12:35:27.207Z,13.75
2018-03-08T12:36:27.245Z,12.33
2018-03-08T12:37:27.241Z,11.48
2018-03-08T12:38:27.236Z,11.30
2018-03-08T12:40:27.462Z,11.54
2018-03-08T12:42:27.155Z,11.97
2018-03-08T12:43:27.127Z,11.31
2018-03-08T12:44:27.159Z,11.09
2018-03-08T12:45:27.108Z,11.37
2018-03-08T12:46:27.387Z,12.55
2018-03-08T12:48:27.081Z,14.45
2018-03-08T12:49:27.073Z,13.72
2018-03-08T12:50:27.155Z,12.86
2018-03-08T12:51:27.150Z,13.57
2018-03-08T12:52:27.047Z,13.76
2018-03-08T12:53:27.018Z,12.98
2018-03-08T12:54:26.989Z,13.46
2018-03-08T12:55:27.031Z,14.09
2018-03-08T12:56:26.980Z,14.58
2018-03-08T12:57:27.577Z,14.92
2018-03-08T12:58:27.197Z,13.61
2018-03-08T12:59:26.949Z,13.45
2018-03-08T13:01:26.917Z,12.50
2018-03-08T13:02:26.913Z,12.48
2018-03-08T13:03:26.965Z,13.32
2018-03-08T13:04:27.199Z,13.82
2018-03-08T13:05:26.895Z,13.46
2018-03-08T13:06:26.884Z,12.65
2018-03-08T13:07:26.863Z,13.63
2018-03-08T13:08:26.860Z,13.08
2018-03-08T13:09:26.898Z,13.01
2018-03-08T13:10:27.071Z,13.06
2018-03-08T13:11:26.821Z,13.35
2018-03-08T13:12:26.815Z,13.97
2018-03-08T13:14:26.803Z,14.71
2018-03-08T13:15:26.823Z,15.19
2018-03-08T13:16:26.766Z,13.85
2018-03-08T13:17:27.006Z,13.47
2018-03-08T13:18:26.751Z,13.38
2018-03-08T13:19:26.739Z,12.68
2018-03-08T13:21:26.734Z,12.51
2018-03-08T13:22:26.711Z,12.25
2018-03-08T13:23:26.703Z,12.00
2018-03-08T13:24:26.989Z,11.84
2018-03-08T13:25:26.734Z,11.19
2018-03-08T13:26:26.669Z,11.38
2018-03-08T13:27:26.653Z,11.61
2018-03-08T13:28:26.659Z,13.08
2018-03-08T13:30:26.929Z,14.34
2018-03-08T13:31:26.656Z,13.71
2018-03-08T13:32:26.596Z,14.09
2018-03-08T13:33:26.607Z,14.26
2018-03-08T13:34:26.587Z,13.19
2018-03-08T13:35:26.583Z,13.21
2018-03-08T13:36:26.620Z,13.71
2018-03-08T13:37:26.552Z,13.91
2018-03-08T13:38:26.554Z,13.76
2018-03-08T13:39:26.534Z,13.19
2018-03-08T13:40:26.518Z,13.54
2018-03-08T13:41:26.562Z,13.05
2018-03-08T13:42:26.556Z,12.86
2018-03-08T13:43:26.788Z,12.10
2018-03-08T13:44:26.545Z,12.63
2018-03-08T13:45:26.474Z,12.33
2018-03-08T13:46:26.512Z,12.69
2018-03-08T13:49:26.764Z,12.04
2018-03-08T13:50:26.411Z,11.71
2018-03-08T13:51:26.398Z,11.58
2018-03-08T13:52:26.414Z,11.66
2018-03-08T13:53:26.376Z,11.51
2018-03-08T13:54:26.362Z,11.33
2018-03-08T13:55:26.421Z,11.25
2018-03-08T13:56:26.638Z,11.15
2018-03-08T13:57:26.331Z,11.37
2018-03-08T13:58:26.311Z,11.45
2018-03-08T13:59:26.300Z,11.62
2018-03-08T14:00:26.318Z,11.37
2018-03-08T14:01:26.331Z,11.18
2018-03-08T14:02:26.264Z,11.09
2018-03-08T14:03:26.569Z,11.09
2018-03-08T14:04:26.258Z,11.19
2018-03-08T14:05:26.227Z,11.11
2018-03-08T14:06:26.353Z,11.11
2018-03-08T14:07:26.248Z,11.12
2018-03-08T14:08:26.198Z,11.11
2018-03-08T14:09:26.484Z,11.09
2018-03-08T14:10:26.180Z,11.13
2018-03-08T14:11:26.333Z,11.08
2018-03-08T14:12:26.145Z,10.93